Terminal Aerodrome Forecast
Issued by NWS Upton, NY

Home | Current Version | Previous Version | Text Only | Print | Product List | Glossary On
Versions: 1 2 3 4 5 6 7 8 9 10 11 12 13 14 15 16 17 18 19 20 21 22 23 24 25 26 27 28 29 30 31 32 33 34 35
197
FTUS41 KOKX 250750 AAA
TAFISP
TAF AMD
KISP 250750Z 2508/2606 07007KT P6SM VCSH SCT030 OVC060
     FM250900 07010KT 5SM -RA BR SCT015 BKN025
      TEMPO 2510/2511 6SM -RA BR SCT008 BKN015
     FM251100 07013G20KT 2SM RA BR OVC008
     FM251300 10015G24KT 1SM RA BR OVC008
      TEMPO 2513/2516 SCT008 OVC015
     FM251800 05009KT 2SM -RA BR OVC004
     FM252200 36005KT 4SM BR BKN005
     FM260300 VRB03KT 4SM BR SCT005 BKN250=

USA.gov is the U.S. government's official web portal to all federal, state and local government web resources and services.